Etusivu
METAR-TAF:

METAR-TAF

Lentoasemat :

Kööpenhamina, Tanska

Kööpenhaminan lentoasema

Leveyspiiri: 55-37N, Pituuspiiri: 012-39E, korkeus merenpinnasta: 5 m

Tämänhetkinen sää

Tämä raportti tehtiin 26 minuuttia sitten, kello 15.20 UTC
Tuuli 4 kn pohjoisesta, vaihdellen pohjoisen/luoteen ja koillisen välillä
Lämpötila 15°C
Kosteus 72%
Ilmanpaine 1021 hPa
Näkyvyys 10 km tai enemmän
Hajanaisia pilviä 3000 ft:n korkeudessa

METAR: EKCH 211520Z 36004KT 340V040 9999 SCT030 15/10 Q1021 NOSIG

Aika: 17:46 (15:46 UTC)

Sääennuste

Tämä raportti tehtiin 4 tuntia ja 41 minuuttia sitten, kello 11.05 UTC
Ennuste voimassa 21. päivästä klo 12 UTC - 22. päivään klo 12 UTC
Tuuli 4 kn eri suunnista
Näkyvyys 10 km tai enemmän
Hajanaisia pilviä 2500 ft:n korkeudessa

TAF: EKCH 211105Z 2112/2212 VRB04KT 9999 SCT025

Säähavainnot ja -ennusteet yli 4000 lentoasemalta (METAR- ja TAF-raportit).

Käytössä olevat sääasemat on merkitty karttaan keltaisilla ja punaisilla pisteillä.

Aseta hiiri pisteen päälle nähdäksesi sääaseman nimen.

Klikkaa sitten nähdäksesi säähavainnot ja -ennusteet.

Kartan vaihtaminen: klikkaa mustalla rastilla varustettuja vihreitä pisteitä, niin voit zoomata sisään; viivalla varustettua vihreää pistettä, niin voit zoomata ulos tai vihreitä nuolia, niin pääset viereisille kartoille.


METAR-TAF: